createdAt,value
2018-07-19T00:02:22.408Z,101423.11
2018-07-19T00:04:50.456Z,101421.70
2018-07-19T00:07:18.500Z,101430.41
2018-07-19T00:09:46.541Z,101427.06
2018-07-19T00:12:14.606Z,101428.05
2018-07-19T00:14:42.916Z,101432.64
2018-07-19T00:17:10.963Z,101430.25
2018-07-19T00:19:38.988Z,101437.01
2018-07-19T00:22:07.019Z,101430.39
2018-07-19T00:24:35.185Z,101428.00
2018-07-19T00:27:09.470Z,101429.33
2018-07-19T00:29:37.573Z,101433.30
2018-07-19T00:32:05.604Z,101436.64
2018-07-19T00:34:33.727Z,101434.36
2018-07-19T00:37:01.920Z,101435.91
2018-07-19T00:39:29.959Z,101434.59
2018-07-19T00:41:57.991Z,101421.69
2018-07-19T00:44:26.017Z,101422.88
2018-07-19T00:46:54.053Z,101419.89
2018-07-19T00:49:22.080Z,101419.89
2018-07-19T00:51:50.121Z,101418.91
2018-07-19T00:54:18.186Z,101417.24
2018-07-19T00:56:46.197Z,101415.92
2018-07-19T00:59:14.243Z,101412.91
2018-07-19T01:01:42.270Z,101411.59
2018-07-19T01:04:10.316Z,101410.89
2018-07-19T01:06:38.346Z,101414.38
2018-07-19T01:09:08.584Z,101425.25
2018-07-19T01:11:36.705Z,101416.37
2018-07-19T01:14:04.732Z,101420.49
2018-07-19T01:16:32.761Z,101420.60
2018-07-19T01:19:00.802Z,101420.19
2018-07-19T01:21:29.113Z,101418.72
2018-07-19T01:23:57.144Z,101418.95
2018-07-19T01:26:25.173Z,101417.88
2018-07-19T01:28:53.343Z,101414.67
2018-07-19T01:31:21.373Z,101416.36
2018-07-19T01:33:49.382Z,101415.23
2018-07-19T01:36:17.440Z,101405.97
2018-07-19T01:38:45.469Z,101404.31
2018-07-19T01:41:24.941Z,101391.23
2018-07-19T01:43:53.041Z,101396.55
2018-07-19T01:46:21.062Z,101397.06
2018-07-19T01:48:49.119Z,101388.75
2018-07-19T01:51:17.205Z,101399.48
2018-07-19T01:53:45.188Z,101393.82
2018-07-19T01:56:13.229Z,101391.45
2018-07-19T01:58:41.257Z,101399.17
2018-07-19T02:01:09.289Z,101392.24
2018-07-19T02:03:37.320Z,101391.68
2018-07-19T02:06:05.598Z,101389.94
2018-07-19T02:08:33.820Z,101392.49
2018-07-19T02:11:01.861Z,101391.86
2018-07-19T02:13:29.898Z,101391.30
2018-07-19T02:15:57.911Z,101403.25
2018-07-19T02:18:25.944Z,101397.16
2018-07-19T02:20:54.412Z,101400.70
2018-07-19T02:23:22.450Z,101395.94
2018-07-19T02:25:50.473Z,101399.72
2018-07-19T02:28:18.532Z,101406.09
2018-07-19T02:30:46.557Z,101403.48
2018-07-19T02:33:14.591Z,101406.41
2018-07-19T02:35:42.612Z,101396.83
2018-07-19T02:38:10.620Z,101399.37
2018-07-19T02:40:38.640Z,101404.56
2018-07-19T02:43:06.667Z,101403.98
2018-07-19T02:45:34.684Z,101406.86
2018-07-19T02:48:02.700Z,101408.22
2018-07-19T02:50:30.726Z,101409.09
2018-07-19T02:52:58.786Z,101407.88
2018-07-19T02:55:26.797Z,101412.00
2018-07-19T02:57:54.836Z,101409.86
2018-07-19T03:00:22.848Z,101406.61
2018-07-19T03:02:50.876Z,101413.95
2018-07-19T03:05:18.904Z,101415.03
2018-07-19T03:07:46.991Z,101416.23
2018-07-19T03:10:14.942Z,101406.17
2018-07-19T03:12:43.100Z,101410.16
2018-07-19T03:15:11.084Z,101408.62
2018-07-19T03:17:39.120Z,101407.91
2018-07-19T03:20:07.161Z,101412.72
2018-07-19T03:22:41.774Z,101408.05
2018-07-19T03:25:09.861Z,101417.63
2018-07-19T03:27:37.880Z,101413.67
2018-07-19T03:30:05.926Z,101409.71
2018-07-19T03:32:33.964Z,101405.16
2018-07-19T03:35:01.997Z,101416.08
2018-07-19T03:37:30.213Z,101414.28
2018-07-19T03:39:58.247Z,101419.67
2018-07-19T03:42:26.281Z,101423.63
2018-07-19T03:44:54.326Z,101415.47
2018-07-19T03:47:22.444Z,101416.32
2018-07-19T03:49:50.624Z,101416.32
2018-07-19T03:52:18.685Z,101408.88
2018-07-19T03:54:46.715Z,101411.02
2018-07-19T03:57:14.745Z,101410.63
2018-07-19T03:59:42.777Z,101409.55
2018-07-19T04:02:11.059Z,101408.00
2018-07-19T04:04:39.073Z,101416.63
2018-07-19T04:07:07.368Z,101414.70
2018-07-19T04:09:35.580Z,101412.07
2018-07-19T04:12:03.744Z,101410.86
2018-07-19T04:14:31.753Z,101410.59
2018-07-19T04:16:59.783Z,101401.73
2018-07-19T04:19:27.788Z,101410.56
2018-07-19T04:21:55.814Z,101404.08
2018-07-19T04:24:23.828Z,101406.34
2018-07-19T04:26:51.841Z,101400.13
2018-07-19T04:29:21.180Z,101404.28
2018-07-19T04:31:49.204Z,101397.92
2018-07-19T04:34:17.221Z,101399.62
2018-07-19T04:36:45.240Z,101399.37
2018-07-19T04:39:13.262Z,101398.53
2018-07-19T04:41:41.288Z,101397.31
2018-07-19T04:44:09.304Z,101403.41
2018-07-19T04:46:37.332Z,101402.05
2018-07-19T04:49:05.537Z,101406.45
2018-07-19T04:51:33.585Z,101401.27
2018-07-19T04:54:01.598Z,101412.44
2018-07-19T04:56:29.633Z,101408.58
2018-07-19T04:58:57.801Z,101411.92
2018-07-19T05:01:25.860Z,101409.48
2018-07-19T05:03:53.913Z,101402.87
2018-07-19T05:06:21.944Z,101408.63
2018-07-19T05:08:49.979Z,101406.56
2018-07-19T05:11:18.144Z,101403.27
2018-07-19T05:13:46.168Z,101396.55
2018-07-19T05:16:14.206Z,101403.25
2018-07-19T05:18:42.222Z,101403.34
2018-07-19T05:21:10.455Z,101400.09
2018-07-19T05:23:40.126Z,101404.66
2018-07-19T05:26:08.150Z,101400.89
2018-07-19T05:28:36.180Z,101404.39
2018-07-19T05:31:05.160Z,101402.54
2018-07-19T05:33:33.216Z,101408.14
2018-07-19T05:36:01.244Z,101400.36
2018-07-19T05:38:31.829Z,101403.81
2018-07-19T05:40:59.875Z,101399.46
2018-07-19T05:43:27.900Z,101399.21
2018-07-19T05:45:55.937Z,101396.66
2018-07-19T05:48:24.121Z,101400.63
2018-07-19T05:50:52.167Z,101400.23
2018-07-19T05:53:20.440Z,101401.02
2018-07-19T05:55:48.465Z,101399.25
2018-07-19T05:58:16.477Z,101402.28
2018-07-19T06:00:44.645Z,101409.20
2018-07-19T06:03:12.678Z,101406.02
2018-07-19T06:05:40.698Z,101398.78
2018-07-19T06:08:08.737Z,101396.14
2018-07-19T06:10:36.756Z,101397.00
2018-07-19T06:13:04.811Z,101394.36
2018-07-19T06:15:33.052Z,101397.31
2018-07-19T06:18:01.085Z,101396.95
2018-07-19T06:20:29.132Z,101393.16
2018-07-19T06:22:57.155Z,101394.21
2018-07-19T06:25:25.176Z,101398.69
2018-07-19T06:27:53.284Z,101396.98
2018-07-19T06:30:21.320Z,101395.80
2018-07-19T06:32:49.324Z,101400.45
2018-07-19T06:35:17.349Z,101398.77
2018-07-19T06:37:45.530Z,101404.41
2018-07-19T06:40:13.609Z,101402.13
2018-07-19T06:42:41.653Z,101404.89
2018-07-19T06:45:09.677Z,101402.68
2018-07-19T06:47:37.682Z,101398.97
2018-07-19T06:50:05.700Z,101404.48
2018-07-19T06:52:33.713Z,101404.08
2018-07-19T06:55:01.740Z,101398.70
2018-07-19T06:57:29.837Z,101398.17
2018-07-19T06:59:57.811Z,101406.08
2018-07-19T07:02:25.833Z,101405.69
2018-07-19T07:04:53.918Z,101410.97
2018-07-19T07:07:22.072Z,101415.44
2018-07-19T07:09:50.097Z,101408.89
2018-07-19T07:12:18.393Z,101414.98
2018-07-19T07:14:46.393Z,101413.05
2018-07-19T07:17:14.434Z,101417.61
2018-07-19T07:19:42.484Z,101416.16
2018-07-19T07:22:10.502Z,101415.27
2018-07-19T07:24:38.520Z,101422.32
2018-07-19T07:27:06.652Z,101420.06
2018-07-19T07:29:34.680Z,101411.48
2018-07-19T07:32:02.843Z,101413.81
2018-07-19T07:34:30.844Z,101413.84
2018-07-19T07:36:58.865Z,101420.59
2018-07-19T07:39:26.893Z,101421.02
2018-07-19T07:41:54.909Z,101425.39
2018-07-19T07:44:22.935Z,101422.63
2018-07-19T07:46:50.943Z,101429.66
2018-07-19T07:49:18.965Z,101433.55
2018-07-19T07:51:46.989Z,101432.80
2018-07-19T07:54:15.183Z,101441.45
2018-07-19T07:56:43.140Z,101434.31
2018-07-19T08:01:38.259Z,101435.26
2018-07-19T08:04:06.271Z,101434.65
2018-07-19T08:06:34.442Z,101439.68
2018-07-19T08:09:02.507Z,101443.22
2018-07-19T08:11:31.625Z,101438.78
2018-07-19T08:13:59.635Z,101437.80
2018-07-19T08:16:27.660Z,101439.54
2018-07-19T08:18:55.669Z,101435.78
2018-07-19T08:21:23.702Z,101434.81
2018-07-19T08:23:51.726Z,101433.17
2018-07-19T08:26:19.740Z,101430.00
2018-07-19T08:28:47.764Z,101435.16
2018-07-19T08:31:15.787Z,101426.67
2018-07-19T08:33:43.942Z,101429.20
2018-07-19T08:36:11.955Z,101431.05
2018-07-19T08:38:39.952Z,101430.02
2018-07-19T08:41:07.983Z,101424.83
2018-07-19T08:43:35.984Z,101428.81
2018-07-19T08:46:04.965Z,101423.79
2018-07-19T08:48:32.984Z,101417.75
2018-07-19T08:51:01.061Z,101429.05
2018-07-19T08:53:29.081Z,101426.14
2018-07-19T08:55:57.264Z,101426.06
2018-07-19T08:58:25.288Z,101419.34
2018-07-19T09:00:53.309Z,101423.28
2018-07-19T09:03:22.019Z,101419.38
2018-07-19T09:05:50.080Z,101426.13
2018-07-19T09:08:18.100Z,101421.19
2018-07-19T09:10:46.117Z,101418.79
2018-07-19T09:13:14.125Z,101419.22
2018-07-19T09:15:42.128Z,101420.88
2018-07-19T09:18:10.164Z,101419.87
2018-07-19T09:20:38.184Z,101418.09
2018-07-19T09:23:06.279Z,101411.02
2018-07-19T09:25:34.312Z,101413.72
2018-07-19T09:28:02.360Z,101415.48
2018-07-19T09:30:30.382Z,101411.64
2018-07-19T09:32:58.642Z,101405.75
2018-07-19T09:35:26.710Z,101406.55
2018-07-19T09:37:54.736Z,101402.77
2018-07-19T09:40:22.769Z,101404.13
2018-07-19T09:42:50.972Z,101399.13
2018-07-19T09:45:18.984Z,101398.05
2018-07-19T09:47:47.321Z,101399.03
2018-07-19T09:50:15.369Z,101400.00
2018-07-19T09:52:43.419Z,101408.80
2018-07-19T09:55:11.437Z,101394.38
2018-07-19T09:57:39.474Z,101397.87
2018-07-19T10:00:18.284Z,101398.17
2018-07-19T10:02:46.328Z,101393.48
2018-07-19T10:05:14.348Z,101395.77
2018-07-19T10:07:42.467Z,101396.64
2018-07-19T10:10:10.516Z,101390.73
2018-07-19T10:12:38.562Z,101394.06
2018-07-19T10:15:07.312Z,101388.95
2018-07-19T10:17:35.552Z,101388.88
2018-07-19T10:20:03.593Z,101391.08
2018-07-19T10:22:31.605Z,101394.84
2018-07-19T10:24:59.640Z,101392.17
2018-07-19T10:27:27.677Z,101391.95
2018-07-19T10:29:55.709Z,101382.00
2018-07-19T10:32:23.836Z,101382.77
2018-07-19T10:34:51.769Z,101390.19
2018-07-19T10:37:19.813Z,101388.89
2018-07-19T10:39:47.841Z,101382.84
2018-07-19T10:42:15.864Z,101373.66
2018-07-19T10:44:44.037Z,101377.97
2018-07-19T10:47:12.079Z,101372.42
2018-07-19T10:49:40.097Z,101368.95
2018-07-19T10:52:08.140Z,101365.04
2018-07-19T10:54:36.354Z,101365.18
2018-07-19T10:57:05.684Z,101364.48
2018-07-19T10:59:33.716Z,101365.84
2018-07-19T11:02:01.760Z,101363.13
2018-07-19T11:04:29.818Z,101353.16
2018-07-19T11:06:57.860Z,101356.39
2018-07-19T11:09:25.911Z,101354.77
2018-07-19T11:11:53.935Z,101359.66
2018-07-19T11:14:21.988Z,101355.80
2018-07-19T11:16:50.181Z,101350.53
2018-07-19T11:19:18.205Z,101345.08
2018-07-19T11:21:46.253Z,101343.89
2018-07-19T11:24:14.288Z,101345.85
2018-07-19T11:26:42.301Z,101339.34
2018-07-19T11:29:10.333Z,101334.28
2018-07-19T11:31:38.518Z,101334.39
2018-07-19T11:34:06.560Z,101336.34
2018-07-19T11:36:34.600Z,101335.11
2018-07-19T11:39:02.640Z,101333.92
2018-07-19T11:41:30.728Z,101327.81
2018-07-19T11:43:58.713Z,101320.59
2018-07-19T11:46:26.747Z,101319.48
2018-07-19T11:48:54.773Z,101321.96
2018-07-19T11:51:22.809Z,101320.58
2018-07-19T11:53:50.879Z,101315.97
2018-07-19T11:56:19.010Z,101317.16
2018-07-19T11:58:47.032Z,101314.63
2018-07-19T12:01:19.358Z,101315.65
2018-07-19T12:03:47.394Z,101312.58
2018-07-19T12:06:15.465Z,101308.06
2018-07-19T12:08:43.500Z,101310.63
2018-07-19T12:11:11.566Z,101308.11
2018-07-19T12:13:39.613Z,101312.64
2018-07-19T12:16:07.680Z,101301.23
2018-07-19T12:18:35.963Z,101305.79
2018-07-19T12:21:04.907Z,101304.59
2018-07-19T12:23:32.929Z,101300.84
2018-07-19T12:26:01.322Z,101294.83
2018-07-19T12:28:29.375Z,101298.10
2018-07-19T12:30:57.410Z,101300.20
2018-07-19T12:33:25.456Z,101292.33
2018-07-19T12:35:53.488Z,101296.52
2018-07-19T12:38:21.516Z,101288.30
2018-07-19T12:40:49.851Z,101283.36
2018-07-19T12:43:17.865Z,101283.97
2018-07-19T12:45:45.886Z,101282.55
2018-07-19T12:48:13.924Z,101287.05
2018-07-19T12:50:41.945Z,101278.02
2018-07-19T12:53:11.184Z,101281.41
2018-07-19T12:55:39.196Z,101279.95
2018-07-19T12:58:07.238Z,101278.71
2018-07-19T13:00:35.293Z,101276.44
2018-07-19T13:03:03.358Z,101280.11
2018-07-19T13:05:31.413Z,101278.48
2018-07-19T13:07:59.436Z,101274.72
2018-07-19T13:10:27.453Z,101280.80
2018-07-19T13:12:55.519Z,101274.62
2018-07-19T13:15:23.560Z,101278.95
2018-07-19T13:17:51.940Z,101273.78
2018-07-19T13:20:19.984Z,101275.45
2018-07-19T13:22:48.000Z,101277.03
2018-07-19T13:25:16.046Z,101270.15
2018-07-19T13:27:44.436Z,101265.55
2018-07-19T13:30:12.504Z,101268.85
2018-07-19T13:32:40.537Z,101266.10
2018-07-19T13:35:08.629Z,101263.86
2018-07-19T13:37:36.680Z,101265.04
2018-07-19T13:40:05.041Z,101265.92
2018-07-19T13:42:33.208Z,101260.92
2018-07-19T13:45:01.584Z,101264.06
2018-07-19T13:47:29.665Z,101263.20
2018-07-19T13:49:57.745Z,101262.62
2018-07-19T13:55:15.828Z,101259.92
2018-07-19T13:57:43.879Z,101257.93
2018-07-19T14:00:11.941Z,101254.37
2018-07-19T14:02:40.756Z,101252.36
2018-07-19T14:05:08.882Z,101250.34
2018-07-19T14:07:36.924Z,101258.30
2018-07-19T14:10:05.401Z,101259.50
2018-07-19T14:12:33.630Z,101256.41
2018-07-19T14:15:01.654Z,101255.13
2018-07-19T14:17:29.699Z,101251.08
2018-07-19T14:19:57.734Z,101247.57
2018-07-19T14:22:25.778Z,101246.05
2018-07-19T14:24:54.001Z,101241.42
2018-07-19T14:27:22.048Z,101237.05
2018-07-19T14:29:50.081Z,101234.65
2018-07-19T14:32:18.152Z,101238.39
2018-07-19T14:34:46.202Z,101237.81
2018-07-19T14:37:14.232Z,101236.98
2018-07-19T14:39:42.720Z,101237.95
2018-07-19T14:45:00.946Z,101227.11
2018-07-19T14:47:29.023Z,101227.16
2018-07-19T14:49:57.071Z,101228.92
2018-07-19T14:52:32.359Z,101222.45
2018-07-19T14:55:00.382Z,101219.53
2018-07-19T14:57:28.414Z,101217.26
2018-07-19T14:59:56.443Z,101213.44
2018-07-19T15:02:24.469Z,101207.66
2018-07-19T15:04:52.504Z,101201.25
2018-07-19T15:07:20.700Z,101204.78
2018-07-19T15:09:48.754Z,101203.02
2018-07-19T15:12:16.779Z,101202.56
2018-07-19T15:14:44.808Z,101195.77
2018-07-19T15:17:12.989Z,101194.80
2018-07-19T15:19:41.042Z,101195.86
2018-07-19T15:22:09.128Z,101188.27
2018-07-19T15:24:37.508Z,101194.53
2018-07-19T15:27:05.565Z,101184.20
2018-07-19T15:29:33.600Z,101185.97
2018-07-19T15:32:01.642Z,101182.73
2018-07-19T15:34:29.676Z,101183.63
2018-07-19T15:36:57.716Z,101182.54
2018-07-19T15:39:25.941Z,101183.38
2018-07-19T15:41:54.017Z,101185.49
2018-07-19T15:44:22.085Z,101185.94
2018-07-19T15:46:50.160Z,101180.42
2018-07-19T15:49:18.225Z,101178.72
2018-07-19T15:51:46.256Z,101178.03
2018-07-19T15:54:14.994Z,101178.67
2018-07-19T15:56:43.023Z,101174.51
2018-07-19T15:59:11.241Z,101174.09
2018-07-19T16:01:39.339Z,101176.13
2018-07-19T16:04:07.324Z,101171.26
2018-07-19T16:06:35.361Z,101163.05
2018-07-19T16:09:06.093Z,101160.27
2018-07-19T16:11:34.237Z,101155.66
2018-07-19T16:14:02.290Z,101159.10
2018-07-19T16:16:30.314Z,101160.98
2018-07-19T16:18:58.398Z,101157.50
2018-07-19T16:21:26.848Z,101160.80
2018-07-19T16:23:54.887Z,101155.53
2018-07-19T16:26:22.972Z,101154.41
2018-07-19T16:28:51.105Z,101155.09
2018-07-19T16:31:19.267Z,101156.66
2018-07-19T16:33:47.311Z,101150.16
2018-07-19T16:36:15.409Z,101148.54
2018-07-19T16:38:43.400Z,101145.13
2018-07-19T16:41:11.450Z,101146.47
2018-07-19T16:43:39.477Z,101141.69
2018-07-19T16:46:07.510Z,101137.60
2018-07-19T16:48:35.544Z,101138.22
2018-07-19T16:51:03.558Z,101133.78
2018-07-19T16:53:31.592Z,101136.38
2018-07-19T16:55:59.625Z,101134.34
2018-07-19T16:58:27.686Z,101134.65
2018-07-19T17:00:55.708Z,101129.20
2018-07-19T17:03:23.767Z,101130.53
2018-07-19T17:05:52.117Z,101129.41
2018-07-19T17:08:20.153Z,101126.39
2018-07-19T17:10:48.170Z,101126.50
2018-07-19T17:13:16.197Z,101127.96
2018-07-19T17:15:44.398Z,101117.94
2018-07-19T17:18:12.451Z,101117.75
2018-07-19T17:20:40.492Z,101116.52
2018-07-19T17:23:08.527Z,101114.22
2018-07-19T17:25:36.589Z,101112.25
2018-07-19T17:28:05.716Z,101109.02
2018-07-19T17:30:33.731Z,101108.12
2018-07-19T17:33:01.746Z,101102.34
2018-07-19T17:38:05.984Z,101097.92
2018-07-19T17:40:34.353Z,101097.73
2018-07-19T17:43:02.429Z,101098.35
2018-07-19T17:45:30.444Z,101099.05
2018-07-19T17:47:58.597Z,101096.25
2018-07-19T17:50:27.072Z,101100.09
2018-07-19T17:52:55.424Z,101099.91
2018-07-19T17:55:23.675Z,101102.98
2018-07-19T17:57:52.440Z,101106.60
2018-07-19T18:00:20.740Z,101108.77
2018-07-19T18:02:50.341Z,101103.62
2018-07-19T18:05:18.382Z,101108.88
2018-07-19T18:07:46.407Z,101111.95
2018-07-19T18:10:14.436Z,101105.93
2018-07-19T18:15:32.580Z,101106.51
2018-07-19T18:18:00.597Z,101101.68
2018-07-19T18:20:28.815Z,101101.23
2018-07-19T18:22:57.025Z,101109.81
2018-07-19T18:26:09.649Z,101107.38
2018-07-19T18:28:37.660Z,101100.76
2018-07-19T18:31:06.263Z,101105.56
2018-07-19T18:33:34.445Z,101101.13
2018-07-19T18:36:02.794Z,101110.91
2018-07-19T18:38:30.818Z,101111.98
2018-07-19T18:40:59.017Z,101109.45
2018-07-19T18:43:27.073Z,101104.84
2018-07-19T18:45:55.098Z,101112.63
2018-07-19T18:48:23.117Z,101122.03
2018-07-19T18:50:51.276Z,101122.19
2018-07-19T18:53:19.340Z,101124.27
2018-07-19T18:55:47.405Z,101116.92
2018-07-19T18:58:15.461Z,101121.75
2018-07-19T19:00:43.486Z,101124.15
2018-07-19T19:03:11.525Z,101124.92
2018-07-19T19:05:41.238Z,101122.14
2018-07-19T19:08:09.312Z,101120.61
2018-07-19T19:10:37.333Z,101121.59
2018-07-19T19:13:05.349Z,101133.20
2018-07-19T19:15:33.376Z,101134.25
2018-07-19T19:18:01.398Z,101131.43
2018-07-19T19:20:29.661Z,101133.34
2018-07-19T19:22:57.694Z,101132.20
2018-07-19T19:25:25.701Z,101135.55
2018-07-19T19:27:53.933Z,101133.60
2018-07-19T19:30:22.572Z,101139.33
2018-07-19T19:32:50.929Z,101143.55
2018-07-19T19:35:18.990Z,101138.65
2018-07-19T19:37:47.105Z,101138.83
2018-07-19T19:40:15.257Z,101139.20
2018-07-19T19:42:43.343Z,101145.06
2018-07-19T19:45:11.388Z,101139.78
2018-07-19T19:47:39.441Z,101142.16
2018-07-19T19:50:08.199Z,101139.70
2018-07-19T19:52:36.448Z,101142.58
2018-07-19T19:55:04.856Z,101146.44
2018-07-19T19:57:33.197Z,101139.86
2018-07-19T20:00:01.268Z,101145.05
2018-07-19T20:02:29.336Z,101145.06
2018-07-19T20:04:57.356Z,101141.41
2018-07-19T20:07:25.405Z,101136.28
2018-07-19T20:09:53.434Z,101142.78
2018-07-19T20:12:21.620Z,101146.12
2018-07-19T20:14:49.855Z,101144.80
2018-07-19T20:17:17.873Z,101145.47
2018-07-19T20:19:45.906Z,101136.83
2018-07-19T20:22:13.954Z,101134.84
2018-07-19T20:24:42.597Z,101136.05
2018-07-19T20:27:10.905Z,101145.53
2018-07-19T20:29:39.038Z,101146.75
2018-07-19T20:32:07.096Z,101146.89
2018-07-19T20:34:35.165Z,101146.89
2018-07-19T20:37:03.162Z,101141.58
2018-07-19T20:39:31.277Z,101145.06
2018-07-19T20:41:59.327Z,101144.58
2018-07-19T20:44:27.368Z,101142.09
2018-07-19T20:46:55.446Z,101141.09
2018-07-19T20:49:34.425Z,101144.10
2018-07-19T20:52:02.468Z,101140.60
2018-07-19T20:54:30.505Z,101146.77
2018-07-19T20:56:58.550Z,101150.41
2018-07-19T20:59:32.189Z,101153.91
2018-07-19T21:02:01.169Z,101152.22
2018-07-19T21:04:29.222Z,101147.41
2018-07-19T21:06:57.320Z,101148.19
2018-07-19T21:09:25.362Z,101145.69
2018-07-19T21:11:53.397Z,101147.02
2018-07-19T21:14:21.513Z,101148.01
2018-07-19T21:16:49.633Z,101147.34
2018-07-19T21:19:17.793Z,101143.34
2018-07-19T21:21:45.826Z,101144.49
2018-07-19T21:24:13.863Z,101140.00
2018-07-19T21:26:41.897Z,101142.98
2018-07-19T21:29:09.938Z,101143.32
2018-07-19T21:31:38.075Z,101143.49
2018-07-19T21:34:06.100Z,101140.83
2018-07-19T21:36:34.149Z,101140.95
2018-07-19T21:39:02.244Z,101143.58
2018-07-19T21:41:30.281Z,101143.26
2018-07-19T21:43:58.329Z,101145.55
2018-07-19T21:46:26.356Z,101150.18
2018-07-19T21:48:54.402Z,101145.20
2018-07-19T21:51:22.441Z,101135.23
2018-07-19T21:53:50.468Z,101143.86
2018-07-19T21:56:19.361Z,101140.30
2018-07-19T21:58:47.401Z,101144.09
2018-07-19T22:01:15.429Z,101141.93
2018-07-19T22:03:44.195Z,101141.77
2018-07-19T22:06:12.252Z,101140.92
2018-07-19T22:08:40.279Z,101147.73
2018-07-19T22:11:08.297Z,101145.56
2018-07-19T22:13:36.333Z,101141.07
2018-07-19T22:16:04.903Z,101140.70
2018-07-19T22:18:32.917Z,101142.19
2018-07-19T22:21:00.939Z,101141.68
2018-07-19T22:23:28.968Z,101145.29
2018-07-19T22:25:57.050Z,101142.61
2018-07-19T22:28:25.013Z,101146.55
2018-07-19T22:30:53.265Z,101148.85
2018-07-19T22:33:21.305Z,101144.48
2018-07-19T22:35:50.029Z,101146.28
2018-07-19T22:38:18.065Z,101146.70
2018-07-19T22:40:46.118Z,101141.73
2018-07-19T22:43:14.224Z,101144.38
2018-07-19T22:45:42.245Z,101144.31
2018-07-19T22:48:10.285Z,101155.22
2018-07-19T22:50:38.317Z,101145.91
2018-07-19T22:53:06.837Z,101150.02
2018-07-19T22:55:34.898Z,101156.48
2018-07-19T22:58:02.947Z,101153.28
2018-07-19T23:00:31.013Z,101159.48
2018-07-19T23:02:59.101Z,101152.81
2018-07-19T23:05:27.128Z,101151.28
2018-07-19T23:07:55.188Z,101150.93
2018-07-19T23:10:23.204Z,101153.09
2018-07-19T23:12:51.228Z,101146.43
2018-07-19T23:15:19.516Z,101147.59
2018-07-19T23:17:47.545Z,101147.07
2018-07-19T23:20:15.556Z,101142.02
2018-07-19T23:22:53.301Z,101149.80
2018-07-19T23:25:21.341Z,101139.80
2018-07-19T23:27:49.360Z,101139.24
2018-07-19T23:30:17.864Z,101144.86
2018-07-19T23:32:45.885Z,101139.36
2018-07-19T23:35:13.911Z,101136.98
2018-07-19T23:37:43.236Z,101140.37
2018-07-19T23:40:15.817Z,101129.88
2018-07-19T23:42:46.883Z,101127.19
2018-07-19T23:45:20.148Z,101129.83
2018-07-19T23:47:48.438Z,101129.46
2018-07-19T23:50:16.452Z,101133.34
2018-07-19T23:52:44.469Z,101127.69
2018-07-19T23:55:12.498Z,101131.97
2018-07-19T23:57:40.504Z,101135.37
